메인 페이지
METAR-TAF:

METAR-TAF

공항 :

라 아우로라 국제공항

과테말라, 과테말라

위도: 14-35N, 경도: 090-31W, 고도: 1489m

현재 날씨관측

예보는 53분 전, 02:00시(UTC)에 발표되었습니다.
12kt
온도 18°C
습도 73%
기압 1027 hPa
시정 10km 이상
고도 1800ft 상공 구름 조금
고도 8000ft 상공 구름 많음

METAR: MGGT 130200Z 36012KT 9999 FEW018 BKN080 18/13 Q1027 A3033

시각: 20:53 (02:53 UTC)

예보

예보 대상 시간: 13일 00시부터 13일 24시까지 (UTC)
10kt
시정 10km 이상
고도 1600ft 상공 구름 조금
확률 30% :
일시적
13일 02시부터 13일 04시까지 (UTC)
시정: 8000m
고도 1400ft 상공 구름 많음
이슬비
전환 중
13일 13시부터 13일 15시까지 (UTC)
시정 10km 이상
1500m 미만 상공 구름 및 적란운 없음
전환 중
13일 18시부터 13일 20시까지 (UTC)
10kt
고도 2000ft 상공 구름 조금

TAF: MGGT 1300/1324 36010KT 9999 FEW016 TX25/1320Z TN12/1312Z PROB30 TEMPO 1302/1304 8000 DZ BKN014 BECMG 1313/1315 CAVOK BECMG 1318/1320 18010KT FEW020

4,000개 이상의 공항 관측 자료 및 예보 (METAR 및 TAF 보고).

지도상에서 검색 가능한 기상관측소가 노란 점과 빨간 점으로 표시되어 있습니다.

기상관측소 명을 보려면 표시 위로 마우스를 이동하세요.

날씨 관측과 예보를 보려면 클릭하세요.

지도 변경 : 확대하려면 엑스 표시가 있는 녹색 버튼, 축소하려면 빼기 표시가 있는 녹색 버튼, 다음 페이지의 지도를 보려면 녹색 화살표를 클릭하세요.


METAR-TAF: